sensor_id;sensor_type;location;lat;lon;timestamp;P1;durP1;ratioP1;P2;durP2;ratioP2
33987;SDS011;37428;53.580;-1.666;2023-02-28T00:02:18;4.97;;;3.08;;
33987;SDS011;37428;53.580;-1.666;2023-02-28T00:05:21;5.72;;;3.45;;
33987;SDS011;37428;53.580;-1.666;2023-02-28T00:08:24;8.52;;;4.13;;
33987;SDS011;37428;53.580;-1.666;2023-02-28T00:11:27;4.22;;;3.42;;
33987;SDS011;37428;53.580;-1.666;2023-02-28T00:14:29;7.18;;;3.80;;
33987;SDS011;37428;53.580;-1.666;2023-02-28T00:20:35;4.22;;;3.75;;
33987;SDS011;37428;53.580;-1.666;2023-02-28T00:23:37;3.90;;;3.58;;
33987;SDS011;37428;53.580;-1.666;2023-02-28T00:26:41;4.82;;;3.28;;
33987;SDS011;37428;53.580;-1.666;2023-02-28T00:29:46;5.68;;;3.72;;
33987;SDS011;37428;53.580;-1.666;2023-02-28T00:32:49;7.93;;;4.13;;
33987;SDS011;37428;53.580;-1.666;2023-02-28T00:35:52;8.35;;;3.80;;
33987;SDS011;37428;53.580;-1.666;2023-02-28T00:39:02;10.70;;;4.78;;
33987;SDS011;37428;53.580;-1.666;2023-02-28T00:42:04;4.53;;;3.83;;
33987;SDS011;37428;53.580;-1.666;2023-02-28T00:45:07;7.80;;;4.35;;
33987;SDS011;37428;53.580;-1.666;2023-02-28T00:48:11;10.30;;;3.92;;
33987;SDS011;37428;53.580;-1.666;2023-02-28T00:51:13;7.65;;;3.50;;
33987;SDS011;37428;53.580;-1.666;2023-02-28T00:54:15;6.18;;;3.95;;
33987;SDS011;37428;53.580;-1.666;2023-02-28T00:57:19;5.10;;;3.20;;
33987;SDS011;37428;53.580;-1.666;2023-02-28T01:00:21;5.93;;;3.78;;
33987;SDS011;37428;53.580;-1.666;2023-02-28T01:03:24;4.47;;;3.35;;
33987;SDS011;37428;53.580;-1.666;2023-02-28T01:06:26;5.40;;;4.10;;
33987;SDS011;37428;53.580;-1.666;2023-02-28T01:09:29;14.23;;;5.25;;
33987;SDS011;37428;53.580;-1.666;2023-02-28T01:15:33;10.70;;;5.20;;
33987;SDS011;37428;53.580;-1.666;2023-02-28T01:18:37;6.60;;;4.82;;
33987;SDS011;37428;53.580;-1.666;2023-02-28T01:21:39;6.20;;;5.05;;
33987;SDS011;37428;53.580;-1.666;2023-02-28T01:24:42;12.57;;;6.60;;
33987;SDS011;37428;53.580;-1.666;2023-02-28T01:27:44;10.10;;;6.85;;
33987;SDS011;37428;53.580;-1.666;2023-02-28T01:30:47;7.63;;;6.82;;
33987;SDS011;37428;53.580;-1.666;2023-02-28T01:33:51;11.30;;;6.40;;
33987;SDS011;37428;53.580;-1.666;2023-02-28T01:36:53;8.77;;;6.53;;
33987;SDS011;37428;53.580;-1.666;2023-02-28T01:39:55;12.20;;;7.47;;
33987;SDS011;37428;53.580;-1.666;2023-02-28T01:42:58;14.13;;;7.75;;
33987;SDS011;37428;53.580;-1.666;2023-02-28T01:46:00;9.73;;;7.63;;
33987;SDS011;37428;53.580;-1.666;2023-02-28T01:49:05;10.90;;;8.55;;
33987;SDS011;37428;53.580;-1.666;2023-02-28T01:52:10;11.85;;;7.68;;
33987;SDS011;37428;53.580;-1.666;2023-02-28T01:55:18;11.63;;;8.95;;
33987;SDS011;37428;53.580;-1.666;2023-02-28T01:58:22;9.20;;;8.10;;
33987;SDS011;37428;53.580;-1.666;2023-02-28T02:04:31;10.85;;;6.85;;
33987;SDS011;37428;53.580;-1.666;2023-02-28T02:07:38;15.13;;;9.00;;
33987;SDS011;37428;53.580;-1.666;2023-02-28T02:10:43;12.30;;;8.05;;
33987;SDS011;37428;53.580;-1.666;2023-02-28T02:13:53;18.20;;;11.07;;
33987;SDS011;37428;53.580;-1.666;2023-02-28T02:17:10;15.60;;;10.25;;
33987;SDS011;37428;53.580;-1.666;2023-02-28T02:24:24;12.57;;;9.30;;
33987;SDS011;37428;53.580;-1.666;2023-02-28T02:27:55;17.38;;;10.75;;
33987;SDS011;37428;53.580;-1.666;2023-02-28T02:35:02;14.82;;;10.55;;
33987;SDS011;37428;53.580;-1.666;2023-02-28T02:38:15;12.57;;;9.48;;
33987;SDS011;37428;53.580;-1.666;2023-02-28T02:41:31;15.63;;;10.85;;
33987;SDS011;37428;53.580;-1.666;2023-02-28T02:44:39;22.10;;;11.45;;
33987;SDS011;37428;53.580;-1.666;2023-02-28T02:47:44;21.75;;;12.30;;
33987;SDS011;37428;53.580;-1.666;2023-02-28T02:53:52;25.67;;;15.13;;
33987;SDS011;37428;53.580;-1.666;2023-02-28T02:56:59;41.88;;;16.23;;
33987;SDS011;37428;53.580;-1.666;2023-02-28T03:00:09;32.47;;;15.88;;
33987;SDS011;37428;53.580;-1.666;2023-02-28T03:03:12;29.48;;;15.88;;
33987;SDS011;37428;53.580;-1.666;2023-02-28T03:06:22;31.58;;;15.50;;
33987;SDS011;37428;53.580;-1.666;2023-02-28T03:09:25;21.67;;;13.10;;
33987;SDS011;37428;53.580;-1.666;2023-02-28T03:12:31;19.90;;;12.57;;
33987;SDS011;37428;53.580;-1.666;2023-02-28T03:15:43;17.88;;;12.45;;
33987;SDS011;37428;53.580;-1.666;2023-02-28T03:18:58;17.05;;;11.70;;
33987;SDS011;37428;53.580;-1.666;2023-02-28T03:22:14;16.95;;;11.57;;
33987;SDS011;37428;53.580;-1.666;2023-02-28T03:25:23;21.13;;;11.02;;
33987;SDS011;37428;53.580;-1.666;2023-02-28T03:28:37;24.25;;;13.60;;
33987;SDS011;37428;53.580;-1.666;2023-02-28T03:31:48;22.25;;;13.38;;
33987;SDS011;37428;53.580;-1.666;2023-02-28T03:35:02;22.73;;;12.60;;
33987;SDS011;37428;53.580;-1.666;2023-02-28T03:38:15;22.15;;;13.52;;
33987;SDS011;37428;53.580;-1.666;2023-02-28T03:41:21;21.48;;;11.50;;
33987;SDS011;37428;53.580;-1.666;2023-02-28T03:44:28;18.45;;;12.27;;
33987;SDS011;37428;53.580;-1.666;2023-02-28T03:47:35;16.38;;;11.52;;
33987;SDS011;37428;53.580;-1.666;2023-02-28T03:50:43;19.63;;;14.00;;
33987;SDS011;37428;53.580;-1.666;2023-02-28T03:53:52;21.00;;;13.77;;
33987;SDS011;37428;53.580;-1.666;2023-02-28T03:56:59;23.88;;;13.75;;
33987;SDS011;37428;53.580;-1.666;2023-02-28T04:00:08;12.70;;;10.82;;
33987;SDS011;37428;53.580;-1.666;2023-02-28T04:03:15;13.88;;;11.45;;
33987;SDS011;37428;53.580;-1.666;2023-02-28T04:06:20;14.10;;;9.77;;
33987;SDS011;37428;53.580;-1.666;2023-02-28T04:09:25;17.15;;;10.40;;
33987;SDS011;37428;53.580;-1.666;2023-02-28T04:12:28;16.85;;;10.75;;
33987;SDS011;37428;53.580;-1.666;2023-02-28T04:15:31;14.00;;;9.20;;
33987;SDS011;37428;53.580;-1.666;2023-02-28T04:21:35;11.70;;;9.30;;
33987;SDS011;37428;53.580;-1.666;2023-02-28T04:24:41;16.17;;;9.52;;
33987;SDS011;37428;53.580;-1.666;2023-02-28T04:27:45;11.98;;;8.30;;
33987;SDS011;37428;53.580;-1.666;2023-02-28T04:30:47;10.80;;;7.85;;
33987;SDS011;37428;53.580;-1.666;2023-02-28T04:33:55;16.60;;;8.55;;
33987;SDS011;37428;53.580;-1.666;2023-02-28T04:36:58;13.25;;;8.93;;
33987;SDS011;37428;53.580;-1.666;2023-02-28T04:43:04;11.75;;;8.80;;
33987;SDS011;37428;53.580;-1.666;2023-02-28T04:46:08;12.77;;;9.80;;
33987;SDS011;37428;53.580;-1.666;2023-02-28T04:49:11;12.27;;;9.07;;
33987;SDS011;37428;53.580;-1.666;2023-02-28T04:52:20;16.95;;;9.05;;
33987;SDS011;37428;53.580;-1.666;2023-02-28T04:55:23;13.15;;;9.90;;
33987;SDS011;37428;53.580;-1.666;2023-02-28T04:58:25;20.00;;;10.13;;
33987;SDS011;37428;53.580;-1.666;2023-02-28T05:04:30;8.55;;;7.13;;
33987;SDS011;37428;53.580;-1.666;2023-02-28T05:07:34;12.27;;;8.43;;
33987;SDS011;37428;53.580;-1.666;2023-02-28T05:10:37;9.70;;;7.18;;
33987;SDS011;37428;53.580;-1.666;2023-02-28T05:13:40;10.40;;;7.60;;
33987;SDS011;37428;53.580;-1.666;2023-02-28T05:16:42;13.77;;;6.45;;
33987;SDS011;37428;53.580;-1.666;2023-02-28T05:19:44;9.82;;;6.72;;
33987;SDS011;37428;53.580;-1.666;2023-02-28T05:22:46;9.32;;;6.32;;
33987;SDS011;37428;53.580;-1.666;2023-02-28T05:25:52;12.25;;;6.72;;
33987;SDS011;37428;53.580;-1.666;2023-02-28T05:28:54;7.75;;;5.85;;
33987;SDS011;37428;53.580;-1.666;2023-02-28T05:31:57;12.85;;;6.50;;
33987;SDS011;37428;53.580;-1.666;2023-02-28T05:35:00;12.05;;;7.00;;
33987;SDS011;37428;53.580;-1.666;2023-02-28T05:38:02;10.50;;;6.72;;
33987;SDS011;37428;53.580;-1.666;2023-02-28T05:41:07;8.20;;;6.88;;
33987;SDS011;37428;53.580;-1.666;2023-02-28T05:44:09;11.20;;;7.38;;
33987;SDS011;37428;53.580;-1.666;2023-02-28T05:47:14;11.15;;;7.88;;
33987;SDS011;37428;53.580;-1.666;2023-02-28T05:50:17;8.98;;;6.97;;
33987;SDS011;37428;53.580;-1.666;2023-02-28T05:53:21;13.52;;;7.63;;
33987;SDS011;37428;53.580;-1.666;2023-02-28T05:56:24;13.80;;;6.80;;
33987;SDS011;37428;53.580;-1.666;2023-02-28T05:59:26;16.10;;;7.82;;
33987;SDS011;37428;53.580;-1.666;2023-02-28T06:02:28;16.02;;;8.63;;
33987;SDS011;37428;53.580;-1.666;2023-02-28T06:05:31;18.08;;;8.48;;
33987;SDS011;37428;53.580;-1.666;2023-02-28T06:08:33;15.95;;;8.68;;
33987;SDS011;37428;53.580;-1.666;2023-02-28T06:11:37;13.95;;;8.10;;
33987;SDS011;37428;53.580;-1.666;2023-02-28T06:14:39;15.80;;;9.43;;
33987;SDS011;37428;53.580;-1.666;2023-02-28T06:17:48;12.73;;;8.77;;
33987;SDS011;37428;53.580;-1.666;2023-02-28T06:20:52;12.25;;;7.88;;
33987;SDS011;37428;53.580;-1.666;2023-02-28T06:23:54;11.05;;;8.95;;
33987;SDS011;37428;53.580;-1.666;2023-02-28T06:26:58;16.95;;;8.63;;
33987;SDS011;37428;53.580;-1.666;2023-02-28T06:30:05;15.18;;;9.23;;
33987;SDS011;37428;53.580;-1.666;2023-02-28T06:33:08;17.27;;;8.85;;
33987;SDS011;37428;53.580;-1.666;2023-02-28T06:36:12;14.07;;;8.65;;
33987;SDS011;37428;53.580;-1.666;2023-02-28T06:39:15;18.25;;;10.18;;
33987;SDS011;37428;53.580;-1.666;2023-02-28T06:42:19;11.30;;;8.05;;
33987;SDS011;37428;53.580;-1.666;2023-02-28T06:45:22;15.68;;;8.05;;
33987;SDS011;37428;53.580;-1.666;2023-02-28T06:48:26;10.13;;;7.55;;
33987;SDS011;37428;53.580;-1.666;2023-02-28T06:51:29;11.43;;;7.65;;
33987;SDS011;37428;53.580;-1.666;2023-02-28T06:54:31;11.75;;;7.57;;
33987;SDS011;37428;53.580;-1.666;2023-02-28T06:57:35;11.63;;;6.60;;
33987;SDS011;37428;53.580;-1.666;2023-02-28T07:00:38;9.13;;;7.50;;
33987;SDS011;37428;53.580;-1.666;2023-02-28T07:03:42;14.93;;;8.23;;
33987;SDS011;37428;53.580;-1.666;2023-02-28T07:06:44;13.93;;;7.22;;
33987;SDS011;37428;53.580;-1.666;2023-02-28T07:09:46;14.77;;;7.45;;
33987;SDS011;37428;53.580;-1.666;2023-02-28T07:12:50;14.80;;;7.20;;
33987;SDS011;37428;53.580;-1.666;2023-02-28T07:15:53;13.23;;;6.10;;
33987;SDS011;37428;53.580;-1.666;2023-02-28T07:18:55;9.27;;;5.70;;
33987;SDS011;37428;53.580;-1.666;2023-02-28T07:21:57;8.35;;;6.28;;
33987;SDS011;37428;53.580;-1.666;2023-02-28T07:25:01;7.75;;;5.35;;
33987;SDS011;37428;53.580;-1.666;2023-02-28T07:28:07;12.18;;;6.97;;
33987;SDS011;37428;53.580;-1.666;2023-02-28T07:31:09;9.48;;;5.30;;
33987;SDS011;37428;53.580;-1.666;2023-02-28T07:34:14;8.75;;;5.75;;
33987;SDS011;37428;53.580;-1.666;2023-02-28T07:37:16;7.18;;;5.95;;
33987;SDS011;37428;53.580;-1.666;2023-02-28T07:40:22;15.15;;;6.10;;
33987;SDS011;37428;53.580;-1.666;2023-02-28T07:43:26;12.23;;;6.57;;
33987;SDS011;37428;53.580;-1.666;2023-02-28T07:46:28;8.25;;;5.95;;
33987;SDS011;37428;53.580;-1.666;2023-02-28T07:49:35;11.63;;;5.65;;
33987;SDS011;37428;53.580;-1.666;2023-02-28T07:52:44;7.45;;;4.63;;
33987;SDS011;37428;53.580;-1.666;2023-02-28T07:55:46;9.75;;;3.88;;
33987;SDS011;37428;53.580;-1.666;2023-02-28T07:58:50;11.15;;;5.30;;
33987;SDS011;37428;53.580;-1.666;2023-02-28T08:01:52;11.75;;;5.25;;
33987;SDS011;37428;53.580;-1.666;2023-02-28T08:04:54;8.18;;;4.57;;
33987;SDS011;37428;53.580;-1.666;2023-02-28T08:07:56;11.88;;;5.50;;
33987;SDS011;37428;53.580;-1.666;2023-02-28T08:10:59;11.60;;;4.82;;
33987;SDS011;37428;53.580;-1.666;2023-02-28T08:14:03;6.40;;;4.18;;
33987;SDS011;37428;53.580;-1.666;2023-02-28T08:17:05;12.95;;;4.13;;
33987;SDS011;37428;53.580;-1.666;2023-02-28T08:20:08;19.55;;;3.88;;
33987;SDS011;37428;53.580;-1.666;2023-02-28T08:23:11;7.80;;;3.50;;
33987;SDS011;37428;53.580;-1.666;2023-02-28T08:26:13;7.90;;;3.67;;
33987;SDS011;37428;53.580;-1.666;2023-02-28T08:29:17;5.28;;;3.65;;
33987;SDS011;37428;53.580;-1.666;2023-02-28T08:32:19;5.88;;;2.75;;
33987;SDS011;37428;53.580;-1.666;2023-02-28T08:35:21;6.75;;;3.00;;
33987;SDS011;37428;53.580;-1.666;2023-02-28T08:38:24;5.03;;;3.00;;
33987;SDS011;37428;53.580;-1.666;2023-02-28T08:41:26;4.47;;;2.92;;
33987;SDS011;37428;53.580;-1.666;2023-02-28T08:44:31;4.68;;;2.70;;
33987;SDS011;37428;53.580;-1.666;2023-02-28T08:47:33;4.68;;;2.75;;
33987;SDS011;37428;53.580;-1.666;2023-02-28T08:50:40;6.97;;;2.88;;
33987;SDS011;37428;53.580;-1.666;2023-02-28T08:53:42;5.05;;;2.28;;
33987;SDS011;37428;53.580;-1.666;2023-02-28T08:56:44;10.40;;;4.20;;
33987;SDS011;37428;53.580;-1.666;2023-02-28T09:02:50;8.13;;;2.65;;
33987;SDS011;37428;53.580;-1.666;2023-02-28T09:05:57;6.03;;;2.47;;
33987;SDS011;37428;53.580;-1.666;2023-02-28T09:09:00;6.13;;;2.92;;
33987;SDS011;37428;53.580;-1.666;2023-02-28T09:12:04;7.68;;;4.22;;
33987;SDS011;37428;53.580;-1.666;2023-02-28T09:15:10;7.07;;;2.90;;
33987;SDS011;37428;53.580;-1.666;2023-02-28T09:18:13;4.40;;;2.85;;
33987;SDS011;37428;53.580;-1.666;2023-02-28T09:21:17;6.38;;;3.05;;
33987;SDS011;37428;53.580;-1.666;2023-02-28T09:24:20;7.30;;;2.63;;
33987;SDS011;37428;53.580;-1.666;2023-02-28T09:27:23;7.97;;;3.38;;
33987;SDS011;37428;53.580;-1.666;2023-02-28T09:30:28;7.75;;;3.00;;
33987;SDS011;37428;53.580;-1.666;2023-02-28T09:33:30;7.47;;;2.75;;
33987;SDS011;37428;53.580;-1.666;2023-02-28T09:36:34;2.75;;;1.95;;
33987;SDS011;37428;53.580;-1.666;2023-02-28T09:39:38;3.47;;;2.58;;
33987;SDS011;37428;53.580;-1.666;2023-02-28T09:42:40;5.00;;;3.15;;
33987;SDS011;37428;53.580;-1.666;2023-02-28T09:45:46;6.10;;;3.15;;
33987;SDS011;37428;53.580;-1.666;2023-02-28T09:48:51;5.13;;;2.33;;
33987;SDS011;37428;53.580;-1.666;2023-02-28T09:51:56;9.32;;;3.85;;
33987;SDS011;37428;53.580;-1.666;2023-02-28T09:55:04;8.75;;;4.40;;
33987;SDS011;37428;53.580;-1.666;2023-02-28T09:58:39;6.88;;;2.40;;
33987;SDS011;37428;53.580;-1.666;2023-02-28T10:01:45;6.70;;;2.10;;
33987;SDS011;37428;53.580;-1.666;2023-02-28T10:08:05;3.47;;;2.10;;
33987;SDS011;37428;53.580;-1.666;2023-02-28T10:11:14;5.72;;;1.80;;
33987;SDS011;37428;53.580;-1.666;2023-02-28T10:14:23;3.28;;;1.80;;
33987;SDS011;37428;53.580;-1.666;2023-02-28T10:17:30;2.65;;;1.92;;
33987;SDS011;37428;53.580;-1.666;2023-02-28T10:20:40;6.93;;;2.60;;
33987;SDS011;37428;53.580;-1.666;2023-02-28T10:23:45;3.70;;;1.80;;
33987;SDS011;37428;53.580;-1.666;2023-02-28T10:27:05;3.15;;;1.70;;
33987;SDS011;37428;53.580;-1.666;2023-02-28T10:30:14;3.80;;;2.72;;
33987;SDS011;37428;53.580;-1.666;2023-02-28T10:33:22;6.47;;;2.00;;
33987;SDS011;37428;53.580;-1.666;2023-02-28T10:36:25;6.32;;;2.42;;
33987;SDS011;37428;53.580;-1.666;2023-02-28T10:39:37;6.10;;;2.33;;
33987;SDS011;37428;53.580;-1.666;2023-02-28T10:42:40;2.90;;;2.50;;
33987;SDS011;37428;53.580;-1.666;2023-02-28T10:45:52;4.95;;;1.83;;
33987;SDS011;37428;53.580;-1.666;2023-02-28T10:49:01;4.72;;;2.45;;
33987;SDS011;37428;53.580;-1.666;2023-02-28T10:52:07;5.05;;;1.70;;
33987;SDS011;37428;53.580;-1.666;2023-02-28T10:55:14;4.80;;;1.75;;
33987;SDS011;37428;53.580;-1.666;2023-02-28T10:58:21;2.40;;;1.63;;
33987;SDS011;37428;53.580;-1.666;2023-02-28T11:01:40;3.92;;;1.98;;
33987;SDS011;37428;53.580;-1.666;2023-02-28T11:04:46;2.40;;;1.77;;
33987;SDS011;37428;53.580;-1.666;2023-02-28T11:07:50;3.70;;;1.77;;
33987;SDS011;37428;53.580;-1.666;2023-02-28T11:10:58;4.63;;;2.83;;
33987;SDS011;37428;53.580;-1.666;2023-02-28T11:14:05;4.35;;;1.40;;
33987;SDS011;37428;53.580;-1.666;2023-02-28T11:17:19;3.83;;;1.50;;
33987;SDS011;37428;53.580;-1.666;2023-02-28T11:20:25;2.88;;;1.27;;
33987;SDS011;37428;53.580;-1.666;2023-02-28T11:23:33;2.75;;;1.63;;
33987;SDS011;37428;53.580;-1.666;2023-02-28T11:26:41;5.30;;;2.17;;
33987;SDS011;37428;53.580;-1.666;2023-02-28T11:29:46;2.90;;;1.30;;
33987;SDS011;37428;53.580;-1.666;2023-02-28T11:32:49;4.28;;;1.92;;
33987;SDS011;37428;53.580;-1.666;2023-02-28T11:35:55;3.75;;;2.17;;
33987;SDS011;37428;53.580;-1.666;2023-02-28T11:39:00;4.15;;;1.88;;
33987;SDS011;37428;53.580;-1.666;2023-02-28T11:42:23;3.25;;;1.92;;
33987;SDS011;37428;53.580;-1.666;2023-02-28T11:45:41;4.70;;;2.22;;
33987;SDS011;37428;53.580;-1.666;2023-02-28T11:48:53;2.92;;;2.72;;
33987;SDS011;37428;53.580;-1.666;2023-02-28T11:52:06;4.03;;;1.50;;
33987;SDS011;37428;53.580;-1.666;2023-02-28T11:55:23;1.73;;;1.48;;
33987;SDS011;37428;53.580;-1.666;2023-02-28T11:58:38;4.07;;;1.60;;
33987;SDS011;37428;53.580;-1.666;2023-02-28T12:01:57;2.67;;;1.50;;
33987;SDS011;37428;53.580;-1.666;2023-02-28T12:05:25;2.53;;;1.90;;
33987;SDS011;37428;53.580;-1.666;2023-02-28T12:08:43;5.07;;;2.50;;
33987;SDS011;37428;53.580;-1.666;2023-02-28T12:11:51;8.02;;;2.75;;
33987;SDS011;37428;53.580;-1.666;2023-02-28T12:15:00;6.30;;;2.63;;
33987;SDS011;37428;53.580;-1.666;2023-02-28T12:18:27;3.85;;;2.67;;
33987;SDS011;37428;53.580;-1.666;2023-02-28T12:21:45;2.95;;;1.90;;
33987;SDS011;37428;53.580;-1.666;2023-02-28T12:28:41;2.83;;;2.50;;
33987;SDS011;37428;53.580;-1.666;2023-02-28T12:31:48;3.38;;;3.08;;
33987;SDS011;37428;53.580;-1.666;2023-02-28T12:34:54;2.15;;;1.90;;
33987;SDS011;37428;53.580;-1.666;2023-02-28T12:38:01;6.05;;;2.10;;
33987;SDS011;37428;53.580;-1.666;2023-02-28T12:41:10;4.93;;;2.92;;
33987;SDS011;37428;53.580;-1.666;2023-02-28T12:44:26;2.38;;;2.15;;
33987;SDS011;37428;53.580;-1.666;2023-02-28T12:47:34;1.80;;;1.55;;
33987;SDS011;37428;53.580;-1.666;2023-02-28T12:50:38;3.65;;;1.20;;
33987;SDS011;37428;53.580;-1.666;2023-02-28T12:53:46;1.98;;;1.40;;
33987;SDS011;37428;53.580;-1.666;2023-02-28T12:57:05;3.58;;;1.58;;
33987;SDS011;37428;53.580;-1.666;2023-02-28T13:00:12;3.28;;;1.55;;
33987;SDS011;37428;53.580;-1.666;2023-02-28T13:03:21;1.60;;;1.50;;
33987;SDS011;37428;53.580;-1.666;2023-02-28T13:10:43;2.38;;;1.25;;
33987;SDS011;37428;53.580;-1.666;2023-02-28T13:13:49;1.75;;;1.05;;
33987;SDS011;37428;53.580;-1.666;2023-02-28T13:17:02;1.60;;;0.80;;
33987;SDS011;37428;53.580;-1.666;2023-02-28T13:20:16;0.70;;;0.65;;
33987;SDS011;37428;53.580;-1.666;2023-02-28T13:34:21;1.58;;;0.98;;
33987;SDS011;37428;53.580;-1.666;2023-02-28T13:37:33;4.82;;;1.30;;
33987;SDS011;37428;53.580;-1.666;2023-02-28T13:40:38;1.83;;;0.85;;
33987;SDS011;37428;53.580;-1.666;2023-02-28T13:47:33;1.88;;;0.82;;
33987;SDS011;37428;53.580;-1.666;2023-02-28T13:50:38;1.25;;;0.70;;
33987;SDS011;37428;53.580;-1.666;2023-02-28T13:53:54;1.00;;;0.45;;
33987;SDS011;37428;53.580;-1.666;2023-02-28T13:57:11;2.80;;;0.73;;
33987;SDS011;37428;53.580;-1.666;2023-02-28T14:00:33;1.45;;;0.65;;
33987;SDS011;37428;53.580;-1.666;2023-02-28T14:03:51;3.83;;;0.55;;
33987;SDS011;37428;53.580;-1.666;2023-02-28T14:07:07;1.48;;;0.80;;
33987;SDS011;37428;53.580;-1.666;2023-02-28T14:10:22;2.13;;;1.00;;
33987;SDS011;37428;53.580;-1.666;2023-02-28T14:13:37;1.02;;;0.85;;
33987;SDS011;37428;53.580;-1.666;2023-02-28T14:16:45;1.50;;;1.00;;
33987;SDS011;37428;53.580;-1.666;2023-02-28T14:19:54;2.58;;;1.20;;
33987;SDS011;37428;53.580;-1.666;2023-02-28T14:23:01;1.80;;;0.70;;
33987;SDS011;37428;53.580;-1.666;2023-02-28T14:26:14;1.53;;;0.90;;
33987;SDS011;37428;53.580;-1.666;2023-02-28T14:29:36;4.20;;;0.80;;
33987;SDS011;37428;53.580;-1.666;2023-02-28T14:32:54;3.00;;;0.90;;
33987;SDS011;37428;53.580;-1.666;2023-02-28T14:36:09;1.80;;;0.85;;
33987;SDS011;37428;53.580;-1.666;2023-02-28T14:39:16;2.42;;;1.10;;
33987;SDS011;37428;53.580;-1.666;2023-02-28T14:42:29;1.73;;;1.10;;
33987;SDS011;37428;53.580;-1.666;2023-02-28T14:45:33;5.10;;;1.15;;
33987;SDS011;37428;53.580;-1.666;2023-02-28T14:48:44;3.88;;;0.63;;
33987;SDS011;37428;53.580;-1.666;2023-02-28T14:51:49;1.70;;;0.70;;
33987;SDS011;37428;53.580;-1.666;2023-02-28T14:55:06;1.42;;;0.68;;
33987;SDS011;37428;53.580;-1.666;2023-02-28T14:58:20;1.73;;;0.60;;
33987;SDS011;37428;53.580;-1.666;2023-02-28T15:01:26;1.95;;;0.50;;
33987;SDS011;37428;53.580;-1.666;2023-02-28T15:04:34;4.38;;;1.00;;
33987;SDS011;37428;53.580;-1.666;2023-02-28T15:07:39;4.40;;;2.45;;
33987;SDS011;37428;53.580;-1.666;2023-02-28T15:10:41;2.65;;;1.25;;
33987;SDS011;37428;53.580;-1.666;2023-02-28T15:13:45;1.52;;;0.98;;
33987;SDS011;37428;53.580;-1.666;2023-02-28T15:16:51;2.83;;;1.13;;
33987;SDS011;37428;53.580;-1.666;2023-02-28T15:20:00;2.78;;;1.73;;
33987;SDS011;37428;53.580;-1.666;2023-02-28T15:23:06;2.75;;;1.45;;
33987;SDS011;37428;53.580;-1.666;2023-02-28T15:26:11;3.50;;;1.70;;
33987;SDS011;37428;53.580;-1.666;2023-02-28T15:29:23;1.95;;;1.15;;
33987;SDS011;37428;53.580;-1.666;2023-02-28T15:32:27;4.00;;;1.02;;
33987;SDS011;37428;53.580;-1.666;2023-02-28T15:35:45;1.52;;;0.90;;
33987;SDS011;37428;53.580;-1.666;2023-02-28T15:38:59;2.50;;;0.82;;
33987;SDS011;37428;53.580;-1.666;2023-02-28T15:42:13;2.13;;;0.80;;
33987;SDS011;37428;53.580;-1.666;2023-02-28T15:45:34;3.25;;;1.00;;
33987;SDS011;37428;53.580;-1.666;2023-02-28T15:48:42;1.30;;;0.70;;
33987;SDS011;37428;53.580;-1.666;2023-02-28T15:51:51;1.38;;;0.60;;
33987;SDS011;37428;53.580;-1.666;2023-02-28T15:54:56;1.33;;;0.80;;
33987;SDS011;37428;53.580;-1.666;2023-02-28T15:58:00;3.10;;;0.95;;
33987;SDS011;37428;53.580;-1.666;2023-02-28T16:01:06;2.92;;;1.25;;
33987;SDS011;37428;53.580;-1.666;2023-02-28T16:04:18;2.45;;;0.80;;
33987;SDS011;37428;53.580;-1.666;2023-02-28T16:07:35;3.03;;;1.10;;
33987;SDS011;37428;53.580;-1.666;2023-02-28T16:10:40;1.42;;;0.80;;
33987;SDS011;37428;53.580;-1.666;2023-02-28T16:13:43;3.70;;;0.88;;
33987;SDS011;37428;53.580;-1.666;2023-02-28T16:16:47;4.47;;;1.08;;
33987;SDS011;37428;53.580;-1.666;2023-02-28T16:19:52;1.40;;;1.30;;
33987;SDS011;37428;53.580;-1.666;2023-02-28T16:22:56;3.03;;;1.20;;
33987;SDS011;37428;53.580;-1.666;2023-02-28T16:26:02;2.72;;;1.83;;
33987;SDS011;37428;53.580;-1.666;2023-02-28T16:29:08;1.92;;;1.80;;
33987;SDS011;37428;53.580;-1.666;2023-02-28T16:32:15;1.63;;;1.48;;
33987;SDS011;37428;53.580;-1.666;2023-02-28T16:35:18;5.13;;;1.70;;
33987;SDS011;37428;53.580;-1.666;2023-02-28T16:38:22;2.83;;;1.80;;
33987;SDS011;37428;53.580;-1.666;2023-02-28T16:41:30;1.88;;;1.65;;
33987;SDS011;37428;53.580;-1.666;2023-02-28T16:44:33;2.05;;;1.80;;
33987;SDS011;37428;53.580;-1.666;2023-02-28T16:47:38;1.85;;;1.35;;
33987;SDS011;37428;53.580;-1.666;2023-02-28T16:50:40;2.58;;;1.65;;
33987;SDS011;37428;53.580;-1.666;2023-02-28T16:53:44;3.15;;;1.67;;
33987;SDS011;37428;53.580;-1.666;2023-02-28T16:56:48;3.83;;;2.10;;
33987;SDS011;37428;53.580;-1.666;2023-02-28T17:00:05;2.65;;;2.08;;
33987;SDS011;37428;53.580;-1.666;2023-02-28T17:03:10;2.00;;;1.80;;
33987;SDS011;37428;53.580;-1.666;2023-02-28T17:06:27;5.38;;;2.90;;
33987;SDS011;37428;53.580;-1.666;2023-02-28T17:09:32;2.60;;;2.35;;
33987;SDS011;37428;53.580;-1.666;2023-02-28T17:12:35;4.45;;;1.88;;
33987;SDS011;37428;53.580;-1.666;2023-02-28T17:15:39;2.28;;;1.88;;
33987;SDS011;37428;53.580;-1.666;2023-02-28T17:18:49;5.20;;;2.38;;
33987;SDS011;37428;53.580;-1.666;2023-02-28T17:21:52;5.55;;;2.53;;
33987;SDS011;37428;53.580;-1.666;2023-02-28T17:25:00;2.53;;;2.30;;
33987;SDS011;37428;53.580;-1.666;2023-02-28T17:28:04;5.22;;;2.67;;
33987;SDS011;37428;53.580;-1.666;2023-02-28T17:31:09;2.08;;;1.50;;
33987;SDS011;37428;53.580;-1.666;2023-02-28T17:34:14;4.30;;;1.98;;
33987;SDS011;37428;53.580;-1.666;2023-02-28T17:37:18;7.03;;;1.92;;
33987;SDS011;37428;53.580;-1.666;2023-02-28T17:40:26;6.95;;;3.95;;
33987;SDS011;37428;53.580;-1.666;2023-02-28T17:43:31;5.35;;;2.40;;
33987;SDS011;37428;53.580;-1.666;2023-02-28T17:46:33;2.70;;;2.13;;
33987;SDS011;37428;53.580;-1.666;2023-02-28T17:49:35;3.75;;;2.65;;
33987;SDS011;37428;53.580;-1.666;2023-02-28T17:52:38;2.42;;;2.22;;
33987;SDS011;37428;53.580;-1.666;2023-02-28T17:55:43;5.38;;;2.60;;
33987;SDS011;37428;53.580;-1.666;2023-02-28T17:58:47;6.78;;;4.50;;
33987;SDS011;37428;53.580;-1.666;2023-02-28T18:01:50;8.93;;;6.32;;
33987;SDS011;37428;53.580;-1.666;2023-02-28T18:04:52;13.35;;;8.82;;
33987;SDS011;37428;53.580;-1.666;2023-02-28T18:08:09;5.55;;;2.90;;
33987;SDS011;37428;53.580;-1.666;2023-02-28T18:11:13;2.90;;;1.95;;
33987;SDS011;37428;53.580;-1.666;2023-02-28T18:14:20;3.95;;;3.65;;
33987;SDS011;37428;53.580;-1.666;2023-02-28T18:17:25;7.95;;;6.13;;
33987;SDS011;37428;53.580;-1.666;2023-02-28T18:20:27;1.65;;;1.10;;
33987;SDS011;37428;53.580;-1.666;2023-02-28T18:23:35;2.00;;;1.33;;
33987;SDS011;37428;53.580;-1.666;2023-02-28T18:26:49;6.05;;;4.75;;
33987;SDS011;37428;53.580;-1.666;2023-02-28T18:29:54;8.73;;;7.38;;
33987;SDS011;37428;53.580;-1.666;2023-02-28T18:32:56;7.07;;;5.80;;
33987;SDS011;37428;53.580;-1.666;2023-02-28T18:35:59;3.60;;;3.22;;
33987;SDS011;37428;53.580;-1.666;2023-02-28T18:39:03;3.47;;;2.75;;
33987;SDS011;37428;53.580;-1.666;2023-02-28T18:42:13;1.67;;;1.33;;
33987;SDS011;37428;53.580;-1.666;2023-02-28T18:45:16;2.78;;;1.20;;
33987;SDS011;37428;53.580;-1.666;2023-02-28T18:48:19;3.75;;;1.08;;
33987;SDS011;37428;53.580;-1.666;2023-02-28T18:51:35;5.80;;;1.50;;
33987;SDS011;37428;53.580;-1.666;2023-02-28T18:54:37;5.72;;;1.55;;
33987;SDS011;37428;53.580;-1.666;2023-02-28T18:57:41;3.78;;;1.63;;
33987;SDS011;37428;53.580;-1.666;2023-02-28T19:00:46;2.45;;;1.50;;
33987;SDS011;37428;53.580;-1.666;2023-02-28T19:03:48;4.68;;;2.20;;
33987;SDS011;37428;53.580;-1.666;2023-02-28T19:06:52;3.33;;;1.50;;
33987;SDS011;37428;53.580;-1.666;2023-02-28T19:09:55;3.60;;;1.88;;
33987;SDS011;37428;53.580;-1.666;2023-02-28T19:12:57;2.95;;;1.67;;
33987;SDS011;37428;53.580;-1.666;2023-02-28T19:16:02;4.80;;;1.80;;
33987;SDS011;37428;53.580;-1.666;2023-02-28T19:19:06;4.30;;;1.80;;